createdAt,value
2018-02-13T00:00:08.892Z,21.33
2018-02-13T00:02:37.994Z,18.90
2018-02-13T00:05:07.113Z,19.80
2018-02-13T00:07:36.266Z,27.20
2018-02-13T00:10:05.401Z,19.40
2018-02-13T00:12:35.266Z,19.50
2018-02-13T00:15:04.412Z,18.60
2018-02-13T00:17:33.482Z,18.90
2018-02-13T00:20:02.578Z,13.10
2018-02-13T00:22:48.314Z,14.60
2018-02-13T00:25:18.186Z,17.23
2018-02-13T00:27:47.278Z,17.07
2018-02-13T00:30:16.371Z,22.60
2018-02-13T00:32:45.497Z,17.03
2018-02-13T00:35:14.589Z,14.63
2018-02-13T00:37:43.702Z,12.90
2018-02-13T00:40:12.785Z,19.10
2018-02-13T00:42:41.905Z,19.10
2018-02-13T00:45:11.777Z,16.70
2018-02-13T00:47:40.867Z,20.50
2018-02-13T00:50:09.983Z,16.93
2018-02-13T00:52:39.104Z,14.10
2018-02-13T00:55:08.973Z,17.87
2018-02-13T00:57:38.093Z,19.10
2018-02-13T01:00:07.216Z,19.27
2018-02-13T01:02:37.081Z,22.77
2018-02-13T01:05:06.199Z,22.43
2018-02-13T01:07:35.288Z,23.30
2018-02-13T01:10:04.404Z,15.80
2018-02-13T01:12:33.507Z,26.77
2018-02-13T01:15:02.626Z,15.80
2018-02-13T01:17:31.734Z,16.87
2018-02-13T01:20:00.842Z,12.93
2018-02-13T01:22:29.952Z,14.60
2018-02-13T01:24:59.061Z,15.57
2018-02-13T01:27:28.146Z,11.87
2018-02-13T01:29:57.266Z,14.87
2018-02-13T01:32:26.381Z,20.40
2018-02-13T01:34:55.491Z,18.87
2018-02-13T01:37:24.588Z,16.60
2018-02-13T01:39:53.697Z,15.60
2018-02-13T01:42:23.153Z,16.97
2018-02-13T01:44:52.240Z,15.13
2018-02-13T01:47:22.856Z,15.00
2018-02-13T01:49:51.950Z,17.10
2018-02-13T01:52:21.057Z,23.60
2018-02-13T01:54:50.162Z,14.90
2018-02-13T01:57:19.279Z,16.17
2018-02-13T01:59:48.358Z,14.80
2018-02-13T02:02:21.107Z,24.53
2018-02-13T02:04:50.209Z,13.67
2018-02-13T02:07:19.337Z,12.67
2018-02-13T02:09:48.425Z,19.57
2018-02-13T02:12:17.558Z,21.70
2018-02-13T02:14:47.406Z,13.20
2018-02-13T02:17:16.536Z,17.60
2018-02-13T02:19:45.633Z,14.40
2018-02-13T02:22:14.725Z,11.60
2018-02-13T02:24:43.852Z,17.43
2018-02-13T02:27:13.712Z,26.73
2018-02-13T02:29:42.818Z,20.77
2018-02-13T02:32:11.921Z,16.43
2018-02-13T02:34:41.029Z,17.27
2018-02-13T02:37:10.131Z,12.87
2018-02-13T02:39:40.024Z,16.20
2018-02-13T02:42:09.123Z,22.23
2018-02-13T02:44:38.226Z,20.57
2018-02-13T02:47:07.315Z,15.00
2018-02-13T02:49:36.417Z,13.07
2018-02-13T02:52:05.529Z,10.47
2018-02-13T02:54:35.407Z,14.03
2018-02-13T02:57:04.514Z,12.73
2018-02-13T02:59:33.598Z,11.90
2018-02-13T03:04:40.279Z,17.57
2018-02-13T03:07:09.396Z,17.10
2018-02-13T03:09:40.007Z,15.30
2018-02-13T03:12:09.152Z,18.90
2018-02-13T03:14:39.010Z,10.53
2018-02-13T03:17:08.135Z,17.33
2018-02-13T03:19:37.274Z,20.20
2018-02-13T03:22:07.160Z,14.67
2018-02-13T03:24:36.259Z,16.40
2018-02-13T03:27:05.341Z,13.40
2018-02-13T03:29:35.225Z,13.83
2018-02-13T03:32:04.338Z,14.93
2018-02-13T03:34:33.570Z,13.53
2018-02-13T03:37:04.562Z,19.03
2018-02-13T03:39:33.685Z,14.37
2018-02-13T03:42:02.793Z,17.90
2018-02-13T03:44:31.909Z,13.57
2018-02-13T03:47:01.774Z,15.67
2018-02-13T03:49:30.890Z,14.27
2018-02-13T03:51:59.987Z,14.10
2018-02-13T03:54:29.120Z,15.90
2018-02-13T03:56:58.969Z,11.13
2018-02-13T03:59:28.071Z,9.90
2018-02-13T04:01:57.180Z,11.97
2018-02-13T04:04:26.294Z,9.93
2018-02-13T04:06:55.417Z,18.90
2018-02-13T04:09:24.526Z,13.73
2018-02-13T04:11:53.637Z,10.53
2018-02-13T04:14:22.729Z,14.23
2018-02-13T04:16:51.845Z,17.80
2018-02-13T04:19:20.925Z,14.93
2018-02-13T04:21:50.038Z,14.87
2018-02-13T04:24:19.132Z,11.90
2018-02-13T04:26:48.253Z,15.83
2018-02-13T04:29:17.381Z,8.47
2018-02-13T04:31:47.256Z,19.73
2018-02-13T04:34:16.353Z,28.57
2018-02-13T04:36:45.474Z,27.33
2018-02-13T04:39:15.349Z,19.70
2018-02-13T04:41:44.479Z,18.20
2018-02-13T04:44:13.559Z,13.07
2018-02-13T04:46:42.675Z,16.00
2018-02-13T04:49:12.553Z,12.40
2018-02-13T04:51:41.646Z,12.30
2018-02-13T04:54:10.782Z,11.77
2018-02-13T04:56:39.864Z,10.43
2018-02-13T04:59:09.767Z,17.03
2018-02-13T05:01:38.874Z,23.03
2018-02-13T05:04:08.001Z,11.37
2018-02-13T05:06:38.526Z,9.60
2018-02-13T05:09:08.402Z,7.03
2018-02-13T05:11:37.501Z,8.20
2018-02-13T05:14:06.606Z,11.53
2018-02-13T05:16:37.221Z,8.47
2018-02-13T05:19:06.333Z,11.30
2018-02-13T05:21:35.460Z,9.60
2018-02-13T05:24:05.308Z,7.80
2018-02-13T05:26:34.398Z,19.13
2018-02-13T05:29:03.510Z,19.60
2018-02-13T05:31:32.613Z,18.97
2018-02-13T05:34:01.745Z,11.63
2018-02-13T05:36:31.634Z,7.90
2018-02-13T05:39:00.734Z,13.23
2018-02-13T05:41:29.820Z,13.63
2018-02-13T05:43:58.939Z,11.50
2018-02-13T05:46:28.027Z,12.57
2018-02-13T05:48:57.145Z,10.40
2018-02-13T05:51:27.009Z,10.23
2018-02-13T05:53:56.103Z,9.20
2018-02-13T05:56:26.007Z,12.97
2018-02-13T05:58:55.122Z,6.57
2018-02-13T06:01:24.221Z,10.13
2018-02-13T06:03:53.321Z,11.13
2018-02-13T06:06:22.421Z,9.93
2018-02-13T06:08:52.583Z,13.90
2018-02-13T06:11:22.451Z,10.97
2018-02-13T06:13:51.544Z,17.03
2018-02-13T06:16:20.681Z,11.50
2018-02-13T06:18:50.554Z,13.23
2018-02-13T06:21:19.670Z,10.17
2018-02-13T06:23:48.774Z,10.57
2018-02-13T06:26:18.645Z,14.90
2018-02-13T06:28:47.741Z,14.23
2018-02-13T06:31:16.867Z,9.53
2018-02-13T06:33:45.969Z,9.33
2018-02-13T06:36:15.069Z,10.87
2018-02-13T06:38:44.965Z,12.10
2018-02-13T06:41:14.046Z,15.83
2018-02-13T06:43:43.162Z,16.77
2018-02-13T06:46:12.274Z,16.70
2018-02-13T06:48:42.158Z,12.07
2018-02-13T06:51:11.260Z,15.27
2018-02-13T06:53:40.379Z,16.23
2018-02-13T06:56:09.481Z,20.73
2018-02-13T06:58:39.339Z,14.53
2018-02-13T07:01:08.431Z,19.43
2018-02-13T07:03:37.534Z,8.10
2018-02-13T07:06:06.644Z,16.00
2018-02-13T07:08:35.741Z,8.70
2018-02-13T07:11:04.845Z,11.53
2018-02-13T07:13:33.958Z,15.57
2018-02-13T07:16:03.069Z,14.93
2018-02-13T07:18:32.956Z,21.87
2018-02-13T07:21:02.076Z,20.33
2018-02-13T07:23:31.182Z,17.97
2018-02-13T07:26:01.053Z,13.27
2018-02-13T07:28:30.153Z,11.23
2018-02-13T07:30:59.262Z,17.73
2018-02-13T07:33:28.358Z,20.80
2018-02-13T07:35:57.505Z,13.13
2018-02-13T07:38:27.336Z,14.83
2018-02-13T07:40:56.450Z,28.77
2018-02-13T07:43:25.549Z,34.47
2018-02-13T07:45:54.650Z,21.93
2018-02-13T07:48:23.766Z,23.43
2018-02-13T07:50:52.860Z,15.23
2018-02-13T07:53:21.962Z,17.93
2018-02-13T07:55:51.818Z,15.83
2018-02-13T07:58:20.930Z,15.90
2018-02-13T08:00:50.034Z,15.60
2018-02-13T08:03:19.129Z,13.27
2018-02-13T08:05:48.266Z,15.30
2018-02-13T08:08:17.344Z,15.60
2018-02-13T08:10:46.477Z,12.43
2018-02-13T08:13:15.596Z,12.37
2018-02-13T08:15:44.708Z,13.77
2018-02-13T08:18:13.825Z,12.53
2018-02-13T08:20:42.920Z,12.60
2018-02-13T08:23:12.033Z,10.87
2018-02-13T08:25:41.920Z,11.10
2018-02-13T08:28:11.063Z,21.17
2018-02-13T08:30:40.929Z,11.40
2018-02-13T08:33:10.027Z,11.40
2018-02-13T08:35:39.117Z,8.07
2018-02-13T08:38:08.213Z,10.00
2018-02-13T08:40:37.327Z,8.53
2018-02-13T08:43:06.409Z,10.40
2018-02-13T08:45:35.531Z,8.93
2018-02-13T08:48:04.631Z,12.77
2018-02-13T08:50:34.514Z,12.87
2018-02-13T08:53:03.606Z,11.00
2018-02-13T08:55:32.716Z,11.73
2018-02-13T08:58:01.824Z,8.40
2018-02-13T09:00:30.906Z,11.50
2018-02-13T09:03:00.863Z,8.63
2018-02-13T09:05:30.721Z,5.30
2018-02-13T09:07:59.813Z,12.73
2018-02-13T09:10:28.937Z,9.63
2018-02-13T09:12:58.069Z,13.23
2018-02-13T09:15:27.178Z,8.37
2018-02-13T09:17:56.254Z,15.20
2018-02-13T09:20:25.417Z,9.73
2018-02-13T09:22:54.461Z,11.50
2018-02-13T09:25:23.585Z,10.60
2018-02-13T09:27:52.661Z,8.90
2018-02-13T09:30:21.813Z,12.40
2018-02-13T09:32:50.926Z,11.60
2018-02-13T09:35:20.777Z,8.63
2018-02-13T09:37:49.895Z,12.53
2018-02-13T09:40:18.966Z,8.27
2018-02-13T09:42:48.112Z,9.03
2018-02-13T09:45:17.233Z,7.70
2018-02-13T09:47:46.318Z,10.17
2018-02-13T09:50:15.405Z,12.80
2018-02-13T09:52:45.296Z,9.27
2018-02-13T09:55:14.402Z,11.67
2018-02-13T09:57:43.513Z,6.30
2018-02-13T10:00:13.384Z,11.23
2018-02-13T10:02:42.519Z,9.10
2018-02-13T10:05:11.591Z,12.23
2018-02-13T10:07:40.735Z,11.53
2018-02-13T10:10:10.596Z,8.90
2018-02-13T10:12:39.691Z,7.10
2018-02-13T10:15:08.794Z,6.37
2018-02-13T10:17:37.907Z,11.40
2018-02-13T10:20:07.010Z,8.13
2018-02-13T10:22:36.146Z,6.90
2018-02-13T10:25:05.296Z,7.00
2018-02-13T10:27:34.435Z,7.83
2018-02-13T10:30:03.533Z,8.77
2018-02-13T10:32:33.407Z,8.23
2018-02-13T10:35:02.508Z,8.93
2018-02-13T10:37:31.653Z,6.33
2018-02-13T10:40:00.757Z,12.33
2018-02-13T10:42:30.646Z,12.67
2018-02-13T10:44:59.761Z,9.87
2018-02-13T10:47:28.868Z,13.33
2018-02-13T10:49:57.982Z,10.70
2018-02-13T10:52:27.094Z,11.50
2018-02-13T10:54:56.984Z,8.40
2018-02-13T10:57:26.660Z,9.00
2018-02-13T10:59:55.760Z,8.90
2018-02-13T11:02:24.898Z,10.93
2018-02-13T11:04:54.038Z,4.80
2018-02-13T11:07:23.124Z,6.30
2018-02-13T11:09:52.269Z,6.00
2018-02-13T11:12:22.105Z,8.23
2018-02-13T11:14:51.231Z,7.20
2018-02-13T11:17:21.086Z,6.00
2018-02-13T11:19:50.226Z,18.67
2018-02-13T11:22:19.330Z,7.50
2018-02-13T11:24:49.203Z,4.20
2018-02-13T11:27:18.291Z,5.37
2018-02-13T11:29:47.413Z,4.40
2018-02-13T11:32:16.495Z,3.93
2018-02-13T11:34:45.595Z,4.77
2018-02-13T11:37:14.723Z,7.50
2018-02-13T11:39:43.806Z,6.07
2018-02-13T11:42:12.906Z,8.30
2018-02-13T11:44:42.020Z,8.23
2018-02-13T11:47:11.867Z,7.53
2018-02-13T11:49:40.998Z,6.80
2018-02-13T11:52:10.078Z,4.20
2018-02-13T11:54:39.218Z,4.60
2018-02-13T11:57:08.307Z,5.80
2018-02-13T11:59:37.420Z,8.80
2018-02-13T12:02:06.508Z,5.97
2018-02-13T12:04:35.626Z,4.37
2018-02-13T12:07:05.496Z,5.57
2018-02-13T12:09:34.594Z,6.43
2018-02-13T12:12:03.702Z,3.43
2018-02-13T12:14:32.799Z,4.60
2018-02-13T12:17:01.886Z,7.67
2018-02-13T12:19:30.996Z,11.43
2018-02-13T12:22:00.099Z,6.07
2018-02-13T12:24:29.197Z,8.87
2018-02-13T12:26:59.076Z,4.80
2018-02-13T12:29:28.189Z,7.50
2018-02-13T12:31:57.295Z,7.07
2018-02-13T12:34:26.406Z,5.20
2018-02-13T12:36:55.503Z,8.40
2018-02-13T12:39:25.386Z,8.13
2018-02-13T12:41:54.482Z,11.20
2018-02-13T12:44:23.590Z,8.70
2018-02-13T12:46:52.690Z,7.20
2018-02-13T12:49:22.571Z,7.23
2018-02-13T12:51:51.657Z,4.97
2018-02-13T12:54:20.780Z,4.57
2018-02-13T12:56:49.879Z,7.70
2018-02-13T12:59:18.983Z,5.50
2018-02-13T13:01:48.142Z,7.83
2018-02-13T13:04:17.969Z,9.93
2018-02-13T13:06:47.112Z,12.33
2018-02-13T13:09:16.981Z,8.37
2018-02-13T13:11:46.085Z,4.53
2018-02-13T13:14:15.192Z,7.60
2018-02-13T13:16:44.286Z,7.20
2018-02-13T13:19:13.395Z,5.57
2018-02-13T13:21:43.297Z,3.13
2018-02-13T13:24:12.393Z,5.30
2018-02-13T13:26:41.506Z,5.20
2018-02-13T13:29:10.598Z,3.77
2018-02-13T13:31:40.449Z,5.80
2018-02-13T13:34:09.558Z,5.10
2018-02-13T13:36:38.711Z,5.10
2018-02-13T13:39:07.774Z,7.33
2018-02-13T13:41:36.866Z,5.23
2018-02-13T13:44:05.971Z,7.80
2018-02-13T13:46:35.113Z,34.17
2018-02-13T13:49:04.231Z,15.70
2018-02-13T13:51:33.324Z,12.80
2018-02-13T13:54:02.421Z,23.03
2018-02-13T13:56:32.840Z,6.07
2018-02-13T13:59:01.956Z,10.70
2018-02-13T14:01:31.061Z,6.63
2018-02-13T14:04:00.149Z,6.37
2018-02-13T14:06:29.262Z,12.83
2018-02-13T14:08:58.341Z,4.80
2018-02-13T14:11:27.459Z,7.00
2018-02-13T14:13:56.584Z,3.20
2018-02-13T14:16:26.446Z,5.50
2018-02-13T14:18:55.566Z,3.63
2018-02-13T14:21:24.676Z,8.50
2018-02-13T14:23:54.552Z,6.90
2018-02-13T14:26:24.470Z,5.90
2018-02-13T14:28:53.622Z,6.80
2018-02-13T14:31:22.702Z,10.40
2018-02-13T14:33:52.589Z,5.23
2018-02-13T14:36:21.697Z,3.57
2018-02-13T14:38:50.816Z,6.80
2018-02-13T14:41:20.713Z,8.83
2018-02-13T14:43:49.807Z,6.10
2018-02-13T14:46:18.901Z,6.13
2018-02-13T14:48:48.013Z,6.80
2018-02-13T14:51:17.893Z,10.33
2018-02-13T14:53:47.016Z,9.13
2018-02-13T14:56:16.870Z,6.57
2018-02-13T14:58:45.985Z,6.90
2018-02-13T15:01:15.896Z,5.20
2018-02-13T15:03:45.026Z,8.87
2018-02-13T15:06:15.622Z,5.73
2018-02-13T15:08:44.750Z,6.17
2018-02-13T15:11:13.868Z,4.70
2018-02-13T15:13:43.010Z,8.30
2018-02-13T15:16:12.122Z,6.93
2018-02-13T15:18:43.203Z,4.70
2018-02-13T15:21:12.293Z,5.60
2018-02-13T15:23:42.223Z,7.33
2018-02-13T15:26:12.079Z,5.53
2018-02-13T15:28:41.227Z,52.20
2018-02-13T15:31:10.379Z,12.07
2018-02-13T15:33:40.230Z,6.50
2018-02-13T15:36:10.105Z,13.93
2018-02-13T15:38:39.974Z,7.10
2018-02-13T15:41:09.846Z,9.10
2018-02-13T15:43:38.961Z,5.97
2018-02-13T15:46:08.042Z,8.10
2018-02-13T15:48:37.133Z,6.90
2018-02-13T15:51:06.249Z,6.47
2018-02-13T15:53:35.339Z,9.20
2018-02-13T15:56:05.007Z,9.60
2018-02-13T15:58:34.164Z,5.87
2018-02-13T16:01:03.227Z,6.90
2018-02-13T16:03:32.317Z,5.67
2018-02-13T16:06:02.151Z,8.00
2018-02-13T16:08:31.254Z,6.00
2018-02-13T16:11:00.369Z,10.50
2018-02-13T16:13:29.482Z,5.37
2018-02-13T16:15:59.347Z,7.60
2018-02-13T16:18:28.437Z,4.57
2018-02-13T16:20:57.554Z,6.83
2018-02-13T16:23:26.649Z,9.30
2018-02-13T16:25:56.555Z,15.50
2018-02-13T16:28:27.260Z,9.40
2018-02-13T16:30:56.347Z,9.00
2018-02-13T16:33:25.459Z,13.53
2018-02-13T16:35:54.573Z,14.30
2018-02-13T16:38:23.714Z,12.90
2018-02-13T16:40:52.821Z,24.57
2018-02-13T16:43:22.710Z,21.10
2018-02-13T16:45:52.592Z,13.17
2018-02-13T16:48:21.703Z,6.90
2018-02-13T16:50:50.820Z,9.33
2018-02-13T16:53:19.920Z,8.57
2018-02-13T16:55:49.789Z,8.67
2018-02-13T16:58:18.910Z,11.70
2018-02-13T17:00:48.017Z,12.43
2018-02-13T17:03:17.141Z,6.53
2018-02-13T17:05:46.329Z,6.90
2018-02-13T17:08:16.164Z,8.47
2018-02-13T17:10:45.285Z,7.70
2018-02-13T17:13:14.381Z,8.10
2018-02-13T17:15:43.482Z,7.13
2018-02-13T17:18:12.629Z,9.40
2018-02-13T17:20:42.489Z,12.33
2018-02-13T17:23:11.626Z,9.60
2018-02-13T17:25:41.483Z,10.47
2018-02-13T17:28:11.360Z,7.50
2018-02-13T17:30:40.505Z,8.30
2018-02-13T17:33:09.629Z,10.57
2018-02-13T17:35:38.748Z,21.60
2018-02-13T17:38:07.864Z,19.00
2018-02-13T17:40:36.999Z,8.33
2018-02-13T17:43:06.237Z,11.80
2018-02-13T17:45:35.359Z,12.03
2018-02-13T17:48:04.444Z,10.47
2018-02-13T17:50:33.546Z,8.80
2018-02-13T17:53:02.688Z,9.63
2018-02-13T17:55:31.774Z,10.13
2018-02-13T17:58:00.869Z,15.87
2018-02-13T18:00:29.980Z,8.30
2018-02-13T18:02:59.095Z,11.40
2018-02-13T18:05:28.209Z,8.93
2018-02-13T18:07:58.111Z,11.07
2018-02-13T18:10:27.218Z,11.93
2018-02-13T18:12:56.364Z,10.83
2018-02-13T18:15:26.254Z,14.90
2018-02-13T18:17:55.371Z,12.20
2018-02-13T18:20:25.278Z,14.03
2018-02-13T18:22:54.389Z,11.27
2018-02-13T18:25:23.507Z,10.00
2018-02-13T18:27:52.629Z,14.63
2018-02-13T18:30:22.500Z,10.60
2018-02-13T18:32:51.633Z,11.70
2018-02-13T18:35:21.517Z,16.90
2018-02-13T18:37:50.642Z,14.17
2018-02-13T18:40:20.517Z,15.70
2018-02-13T18:42:49.649Z,14.90
2018-02-13T18:45:19.546Z,18.10
2018-02-13T18:47:48.694Z,26.10
2018-02-13T18:50:17.823Z,24.63
2018-02-13T18:55:16.087Z,18.33
2018-02-13T18:57:45.177Z,13.83
2018-02-13T19:00:14.343Z,16.97
2018-02-13T19:02:43.447Z,14.00
2018-02-13T19:05:13.319Z,13.30
2018-02-13T19:07:42.434Z,12.30
2018-02-13T19:10:12.351Z,10.87
2018-02-13T19:12:41.469Z,16.63
2018-02-13T19:15:11.355Z,13.77
2018-02-13T19:17:40.465Z,13.73
2018-02-13T19:20:10.352Z,12.43
2018-02-13T19:22:39.483Z,15.60
2018-02-13T19:25:09.373Z,19.13
2018-02-13T19:27:38.472Z,13.37
2018-02-13T19:30:07.602Z,12.37
2018-02-13T19:32:37.514Z,18.03
2018-02-13T19:35:07.396Z,20.37
2018-02-13T19:37:36.525Z,22.07
2018-02-13T19:40:05.652Z,21.40
2018-02-13T19:42:34.792Z,20.30
2018-02-13T19:45:03.907Z,19.87
2018-02-13T19:47:33.791Z,19.27
2018-02-13T19:50:02.930Z,14.60
2018-02-13T19:52:32.797Z,15.90
2018-02-13T19:55:01.950Z,13.93
2018-02-13T19:57:31.054Z,14.30
2018-02-13T20:00:00.211Z,16.63
2018-02-13T20:02:29.296Z,14.27
2018-02-13T20:04:58.451Z,14.17
2018-02-13T20:07:27.819Z,14.40
2018-02-13T20:09:57.727Z,17.90
2018-02-13T20:12:26.828Z,15.40
2018-02-13T20:14:56.722Z,27.13
2018-02-13T20:17:25.849Z,25.20
2018-02-13T20:19:55.745Z,17.00
2018-02-13T20:22:24.858Z,15.77
2018-02-13T20:24:54.739Z,15.53
2018-02-13T20:27:23.866Z,16.67
2018-02-13T20:29:53.734Z,15.40
2018-02-13T20:32:22.899Z,21.67
2018-02-13T20:34:52.012Z,15.03
2018-02-13T20:37:21.180Z,22.40
2018-02-13T20:39:51.059Z,17.70
2018-02-13T20:42:20.168Z,15.07
2018-02-13T20:44:50.067Z,20.00
2018-02-13T20:47:19.235Z,14.03
2018-02-13T20:49:48.343Z,15.93
2018-02-13T20:52:17.491Z,13.37
2018-02-13T20:54:46.643Z,13.97
2018-02-13T20:57:15.799Z,11.73
2018-02-13T20:59:44.905Z,13.90
2018-02-13T21:02:14.049Z,18.13
2018-02-13T21:04:43.191Z,15.47
2018-02-13T21:07:12.309Z,12.37
2018-02-13T21:09:41.457Z,12.93
2018-02-13T21:12:10.558Z,16.87
2018-02-13T21:14:39.686Z,14.50
2018-02-13T21:17:08.783Z,18.80
2018-02-13T21:19:37.921Z,16.87
2018-02-13T21:22:07.041Z,16.03
2018-02-13T21:24:37.236Z,12.43
2018-02-13T21:27:06.687Z,20.33
2018-02-13T21:29:35.805Z,15.30
2018-02-13T21:32:04.941Z,16.30
2018-02-13T21:34:34.059Z,16.73
2018-02-13T21:37:03.986Z,12.90
2018-02-13T21:39:33.114Z,15.97
2018-02-13T21:42:02.238Z,13.40
2018-02-13T21:44:31.350Z,12.60
2018-02-13T21:47:00.826Z,12.13
2018-02-13T21:49:29.956Z,14.90
2018-02-13T21:51:59.830Z,21.30
2018-02-13T21:54:28.988Z,14.03
2018-02-13T21:56:58.858Z,17.50
2018-02-13T21:59:27.966Z,14.27
2018-02-13T22:01:57.075Z,14.43
2018-02-13T22:04:26.166Z,22.10
2018-02-13T22:06:55.298Z,17.23
2018-02-13T22:09:24.395Z,18.93
2018-02-13T22:11:53.499Z,19.13
2018-02-13T22:14:22.582Z,17.93
2018-02-13T22:16:51.700Z,17.93
2018-02-13T22:19:21.567Z,12.70
2018-02-13T22:21:51.442Z,13.33
2018-02-13T22:24:20.553Z,16.53
2018-02-13T22:26:49.696Z,20.00
2018-02-13T22:29:18.794Z,17.40
2018-02-13T22:31:48.690Z,21.80
2018-02-13T22:36:53.117Z,17.07
2018-02-13T22:39:22.216Z,16.27
2018-02-13T22:41:52.091Z,16.57
2018-02-13T22:44:21.227Z,11.27
2018-02-13T22:46:50.335Z,15.63
2018-02-13T22:49:19.487Z,14.90
2018-02-13T22:51:48.599Z,15.37
2018-02-13T22:54:17.722Z,13.17
2018-02-13T22:56:47.590Z,18.67
2018-02-13T22:59:16.719Z,16.60
2018-02-13T23:01:46.611Z,16.10
2018-02-13T23:04:15.732Z,13.97
2018-02-13T23:06:45.612Z,20.70
2018-02-13T23:09:14.728Z,26.47
2018-02-13T23:11:43.850Z,15.63
2018-02-13T23:14:13.732Z,17.10
2018-02-13T23:16:44.356Z,13.13
2018-02-13T23:19:13.551Z,13.67
2018-02-13T23:21:43.433Z,22.50
2018-02-13T23:24:12.546Z,22.43
2018-02-13T23:26:41.681Z,19.43
2018-02-13T23:29:11.573Z,18.37
2018-02-13T23:31:40.678Z,15.93
2018-02-13T23:34:09.799Z,18.03
2018-02-13T23:36:39.679Z,18.33
2018-02-13T23:39:08.796Z,19.83
2018-02-13T23:41:37.911Z,20.87
2018-02-13T23:44:08.642Z,18.50
2018-02-13T23:46:39.592Z,18.90
2018-02-13T23:49:08.727Z,28.23
2018-02-13T23:51:37.839Z,18.10
2018-02-13T23:54:06.931Z,20.67
2018-02-13T23:56:36.050Z,18.40
2018-02-13T23:59:05.173Z,26.87
